createdAt,value
2023-03-02T00:00:07.886Z,0
2023-03-02T00:03:07.972Z,0
2023-03-02T00:06:07.777Z,0
2023-03-02T00:09:07.764Z,0
2023-03-02T00:12:07.688Z,0
2023-03-02T00:15:07.728Z,0
2023-03-02T00:18:07.805Z,0
2023-03-02T00:21:07.772Z,0
2023-03-02T00:24:07.681Z,0
2023-03-02T00:27:07.714Z,0
2023-03-02T00:30:07.742Z,0
2023-03-02T00:33:07.771Z,0
2023-03-02T00:36:08.223Z,0
2023-03-02T00:39:07.722Z,0
2023-03-02T00:42:07.776Z,0
2023-03-02T00:45:07.736Z,0
2023-03-02T00:48:07.764Z,0
2023-03-02T00:51:07.792Z,0
2023-03-02T00:54:07.746Z,0
2023-03-02T00:57:07.738Z,0
2023-03-02T01:00:07.762Z,0
2023-03-02T01:03:08.089Z,0
2023-03-02T01:06:07.754Z,0
2023-03-02T01:09:07.772Z,0
2023-03-02T01:12:07.892Z,0
2023-03-02T01:15:07.750Z,0
2023-03-02T01:18:07.764Z,0
2023-03-02T01:21:07.727Z,0
2023-03-02T01:24:07.748Z,0
2023-03-02T01:27:07.751Z,0
2023-03-02T01:30:07.736Z,0
2023-03-02T01:33:07.739Z,0
2023-03-02T01:36:08.071Z,0
2023-03-02T01:39:07.774Z,0
2023-03-02T01:42:07.741Z,0
2023-03-02T01:45:07.816Z,0
2023-03-02T01:48:07.764Z,0
2023-03-02T01:51:07.806Z,0
2023-03-02T01:54:07.835Z,0
2023-03-02T01:57:07.661Z,0
2023-03-02T02:00:07.934Z,0
2023-03-02T02:03:07.720Z,0
2023-03-02T02:06:08.295Z,0
2023-03-02T02:09:07.838Z,0
2023-03-02T02:12:07.902Z,0
2023-03-02T02:15:07.808Z,0
2023-03-02T02:18:07.799Z,0
2023-03-02T02:21:07.789Z,0
2023-03-02T02:24:07.776Z,0
2023-03-02T02:27:07.785Z,0
2023-03-02T02:30:07.820Z,0
2023-03-02T02:33:07.713Z,0
2023-03-02T02:36:08.026Z,0
2023-03-02T02:39:07.743Z,0
2023-03-02T02:42:07.787Z,0
2023-03-02T02:45:07.758Z,0
2023-03-02T02:48:07.778Z,0
2023-03-02T02:51:07.909Z,0
2023-03-02T02:54:07.787Z,0
2023-03-02T02:57:07.727Z,0
2023-03-02T03:00:07.841Z,0
2023-03-02T03:03:07.839Z,0
2023-03-02T03:09:07.743Z,0
2023-03-02T03:12:07.817Z,0
2023-03-02T03:15:07.877Z,0
2023-03-02T03:18:07.991Z,0
2023-03-02T03:21:07.778Z,0
2023-03-02T03:24:07.802Z,0
2023-03-02T03:27:07.944Z,0
2023-03-02T03:30:07.809Z,0
2023-03-02T03:33:07.789Z,0
2023-03-02T03:36:08.010Z,0
2023-03-02T03:39:07.794Z,0
2023-03-02T03:42:07.742Z,0
2023-03-02T03:45:07.840Z,0
2023-03-02T03:48:07.770Z,0
2023-03-02T03:51:07.695Z,0
2023-03-02T03:54:07.733Z,0
2023-03-02T03:57:07.700Z,0
2023-03-02T04:00:07.729Z,0
2023-03-02T04:03:07.838Z,0
2023-03-02T04:06:07.745Z,0
2023-03-02T04:09:07.732Z,0
2023-03-02T04:12:07.814Z,0
2023-03-02T04:15:07.790Z,0
2023-03-02T04:18:07.787Z,0
2023-03-02T04:21:07.776Z,0
2023-03-02T04:24:07.828Z,0
2023-03-02T04:27:07.717Z,0
2023-03-02T04:30:07.800Z,0
2023-03-02T04:33:07.723Z,0
2023-03-02T04:36:08.180Z,0
2023-03-02T04:39:07.737Z,0
2023-03-02T04:42:07.786Z,0
2023-03-02T04:45:07.778Z,0
2023-03-02T04:48:07.721Z,0
2023-03-02T04:51:07.726Z,0
2023-03-02T04:54:07.869Z,0
2023-03-02T04:57:07.715Z,0
2023-03-02T05:00:07.858Z,0
2023-03-02T05:03:07.776Z,0
2023-03-02T05:06:07.830Z,0
2023-03-02T05:09:07.744Z,0
2023-03-02T05:12:07.762Z,0
2023-03-02T05:15:07.762Z,0
2023-03-02T05:18:07.737Z,0
2023-03-02T05:21:07.767Z,0
2023-03-02T05:24:07.720Z,0
2023-03-02T05:27:07.694Z,0
2023-03-02T05:30:07.733Z,0
2023-03-02T05:33:07.776Z,3
2023-03-02T05:36:08.116Z,7
2023-03-02T05:39:07.809Z,10
2023-03-02T05:42:07.733Z,17
2023-03-02T05:45:07.760Z,27
2023-03-02T05:48:07.806Z,43
2023-03-02T05:51:07.773Z,67
2023-03-02T05:54:07.854Z,100
2023-03-02T05:57:07.828Z,133
2023-03-02T06:00:07.853Z,180
2023-03-02T06:03:08.028Z,230
2023-03-02T06:06:07.704Z,293
2023-03-02T06:09:07.872Z,370
2023-03-02T06:12:07.796Z,450
2023-03-02T06:15:07.876Z,527
2023-03-02T06:18:07.887Z,617
2023-03-02T06:21:07.838Z,707
2023-03-02T06:24:07.839Z,813
2023-03-02T06:27:07.822Z,960
2023-03-02T06:30:08.225Z,1120
2023-03-02T06:33:07.750Z,1227
2023-03-02T06:36:08.740Z,1357
2023-03-02T06:39:07.795Z,1563
2023-03-02T06:42:07.880Z,1707
2023-03-02T06:45:07.829Z,1790
2023-03-02T06:48:07.796Z,2003
2023-03-02T06:51:07.787Z,2243
2023-03-02T06:54:07.784Z,2407
2023-03-02T06:57:07.794Z,2640
2023-03-02T07:00:07.885Z,2573
2023-03-02T07:03:07.749Z,2957
2023-03-02T07:06:07.797Z,3190
2023-03-02T07:09:07.797Z,3070
2023-03-02T07:12:07.752Z,3257
2023-03-02T07:15:07.797Z,3413
2023-03-02T07:18:07.767Z,3673
2023-03-02T07:21:07.824Z,3770
2023-03-02T07:24:07.805Z,3870
2023-03-02T07:27:07.802Z,3733
2023-03-02T07:30:08.097Z,4283
2023-03-02T07:33:07.780Z,5070
2023-03-02T07:36:08.122Z,5337
2023-03-02T07:39:07.809Z,6150
2023-03-02T07:42:07.809Z,6863
2023-03-02T07:45:07.938Z,7360
2023-03-02T07:48:07.842Z,6730
2023-03-02T07:51:07.894Z,7077
2023-03-02T07:54:07.861Z,7247
2023-03-02T07:57:07.880Z,7037
2023-03-02T08:00:08.367Z,7110
2023-03-02T08:03:08.078Z,7950
2023-03-02T08:06:07.787Z,9787
2023-03-02T08:09:07.930Z,9813
2023-03-02T08:12:07.809Z,9143
2023-03-02T08:15:11.600Z,9190
2023-03-02T08:18:07.889Z,9197
2023-03-02T08:21:07.826Z,9403
2023-03-02T08:24:08.021Z,9043
2023-03-02T08:27:07.839Z,9653
2023-03-02T08:30:07.944Z,10453
2023-03-02T08:33:13.894Z,10807
2023-03-02T08:36:08.314Z,10640
2023-03-02T08:39:07.848Z,12657
2023-03-02T08:42:07.758Z,12483
2023-03-02T08:45:07.800Z,10083
2023-03-02T08:48:07.832Z,9017
2023-03-02T08:51:07.788Z,14873
2023-03-02T08:54:07.896Z,11840
2023-03-02T08:57:07.881Z,16263
2023-03-02T09:00:07.846Z,15670
2023-03-02T09:03:07.816Z,15330
2023-03-02T09:06:07.764Z,14127
2023-03-02T09:09:07.967Z,14400
2023-03-02T09:12:07.953Z,12050
2023-03-02T09:15:07.913Z,12983
2023-03-02T09:18:08.040Z,13190
2023-03-02T09:21:07.937Z,13230
2023-03-02T09:24:07.791Z,16583
2023-03-02T09:27:08.039Z,14783
2023-03-02T09:30:07.893Z,15867
2023-03-02T09:33:08.286Z,14947
2023-03-02T09:36:07.827Z,13537
2023-03-02T09:39:07.810Z,13630
2023-03-02T09:42:07.804Z,15940
2023-03-02T09:45:07.915Z,14660
2023-03-02T09:48:07.866Z,22107
2023-03-02T09:51:07.783Z,22167
2023-03-02T09:54:08.128Z,29857
2023-03-02T09:57:07.842Z,23793
2023-03-02T10:00:25.782Z,20593
2023-03-02T10:03:24.208Z,14403
2023-03-02T10:06:07.863Z,12570
2023-03-02T10:09:07.849Z,14453
2023-03-02T10:12:07.734Z,23893
2023-03-02T10:15:07.788Z,24253
2023-03-02T10:18:07.992Z,26427
2023-03-02T10:21:07.866Z,37027
2023-03-02T10:24:07.762Z,43723
2023-03-02T10:27:07.880Z,33210
2023-03-02T10:30:07.930Z,34347
2023-03-02T10:33:07.858Z,43783
2023-03-02T10:36:07.843Z,26350
2023-03-02T10:39:07.825Z,27517
2023-03-02T10:42:08.061Z,25453
2023-03-02T10:45:07.835Z,28867
2023-03-02T10:48:07.756Z,39457
2023-03-02T10:51:07.800Z,39043
2023-03-02T10:54:07.891Z,38927
2023-03-02T10:57:07.753Z,37920
2023-03-02T11:00:07.839Z,38130
2023-03-02T11:03:07.779Z,38683
2023-03-02T11:06:07.895Z,38963
2023-03-02T11:09:07.909Z,38873
2023-03-02T11:12:08.141Z,38827
2023-03-02T11:15:07.837Z,38623
2023-03-02T11:18:07.782Z,39063
2023-03-02T11:21:07.764Z,39330
2023-03-02T11:24:10.013Z,39487
2023-03-02T11:27:07.772Z,39357
2023-03-02T11:30:07.819Z,38980
2023-03-02T11:33:08.100Z,39333
2023-03-02T11:36:08.266Z,39203
2023-03-02T11:39:07.842Z,39460
2023-03-02T11:42:08.039Z,39467
2023-03-02T11:45:07.821Z,39310
2023-03-02T11:48:10.950Z,39433
2023-03-02T11:51:07.836Z,39333
2023-03-02T11:54:07.991Z,38280
2023-03-02T11:57:07.771Z,38513
2023-03-02T12:00:07.920Z,38720
2023-03-02T12:03:08.475Z,39067
2023-03-02T12:06:10.401Z,38587
2023-03-02T12:09:08.037Z,38177
2023-03-02T12:12:09.828Z,38347
2023-03-02T12:15:07.842Z,38470
2023-03-02T12:18:08.337Z,38393
2023-03-02T12:21:07.844Z,38193
2023-03-02T12:24:07.844Z,37470
2023-03-02T12:27:07.809Z,37310
2023-03-02T12:30:08.053Z,37177
2023-03-02T12:33:07.815Z,37043
2023-03-02T12:36:07.797Z,37333
2023-03-02T12:39:07.756Z,37150
2023-03-02T12:42:08.118Z,37157
2023-03-02T12:45:08.247Z,35837
2023-03-02T12:48:09.477Z,36593
2023-03-02T12:51:08.059Z,36143
2023-03-02T12:54:07.876Z,36277
2023-03-02T12:57:07.857Z,35413
2023-03-02T13:00:08.106Z,34693
2023-03-02T13:03:07.841Z,32923
2023-03-02T13:06:07.947Z,32040
2023-03-02T13:09:08.178Z,34540
2023-03-02T13:12:07.799Z,34693
2023-03-02T13:15:07.796Z,34230
2023-03-02T13:18:07.841Z,33893
2023-03-02T13:21:07.880Z,32713
2023-03-02T13:24:07.839Z,33460
2023-03-02T13:27:07.898Z,30467
2023-03-02T13:30:09.956Z,22197
2023-03-02T13:33:07.783Z,29813
2023-03-02T13:36:07.745Z,31283
2023-03-02T13:39:07.764Z,31027
2023-03-02T13:42:07.893Z,31777
2023-03-02T13:45:07.804Z,30847
2023-03-02T13:48:07.821Z,30577
2023-03-02T13:51:07.911Z,29513
2023-03-02T13:54:07.871Z,28123
2023-03-02T13:57:07.792Z,27070
2023-03-02T14:00:07.886Z,28193
2023-03-02T14:03:07.728Z,28007
2023-03-02T14:06:07.772Z,27380
2023-03-02T14:09:07.784Z,27277
2023-03-02T14:12:07.837Z,26510
2023-03-02T14:15:08.277Z,25380
2023-03-02T14:18:07.943Z,25430
2023-03-02T14:21:08.011Z,25117
2023-03-02T14:24:08.311Z,24537
2023-03-02T14:27:07.798Z,23383
2023-03-02T14:30:08.060Z,23470
2023-03-02T14:33:07.828Z,22170
2023-03-02T14:36:07.995Z,22757
2023-03-02T14:39:07.929Z,22500
2023-03-02T14:42:07.791Z,20670
2023-03-02T14:45:07.866Z,20273
2023-03-02T14:48:07.817Z,20033
2023-03-02T14:51:08.172Z,19330
2023-03-02T14:54:07.810Z,19247
2023-03-02T14:57:07.754Z,19170
2023-03-02T15:00:08.063Z,15977
2023-03-02T15:03:08.542Z,11330
2023-03-02T15:06:09.113Z,7440
2023-03-02T15:09:07.904Z,8447
2023-03-02T15:12:07.796Z,9207
2023-03-02T15:15:08.092Z,6877
2023-03-02T15:18:07.818Z,6120
2023-03-02T15:21:07.856Z,6490
2023-03-02T15:24:08.087Z,6533
2023-03-02T15:27:07.878Z,7230
2023-03-02T15:30:07.960Z,6883
2023-03-02T15:33:07.835Z,6143
2023-03-02T15:36:08.083Z,5313
2023-03-02T15:39:07.894Z,4663
2023-03-02T15:42:07.920Z,3983
2023-03-02T15:45:07.895Z,3720
2023-03-02T15:48:07.849Z,2890
2023-03-02T15:51:07.802Z,2720
2023-03-02T15:54:07.790Z,2590
2023-03-02T15:57:07.814Z,2840
2023-03-02T16:00:09.791Z,2377
2023-03-02T16:03:08.201Z,2113
2023-03-02T16:06:07.752Z,1920
2023-03-02T16:09:07.795Z,1693
2023-03-02T16:12:07.840Z,1697
2023-03-02T16:15:07.910Z,1703
2023-03-02T16:18:07.812Z,1563
2023-03-02T16:21:07.811Z,1287
2023-03-02T16:24:07.983Z,1137
2023-03-02T16:27:07.791Z,983
2023-03-02T16:30:07.900Z,870
2023-03-02T16:33:07.806Z,660
2023-03-02T16:36:07.867Z,553
2023-03-02T16:39:07.796Z,490
2023-03-02T16:42:07.791Z,467
2023-03-02T16:45:07.829Z,383
2023-03-02T16:48:07.876Z,310
2023-03-02T16:51:08.009Z,243
2023-03-02T16:54:07.891Z,213
2023-03-02T16:57:07.863Z,157
2023-03-02T17:00:07.899Z,120
2023-03-02T17:03:07.742Z,83
2023-03-02T17:06:07.742Z,63
2023-03-02T17:09:07.856Z,43
2023-03-02T17:12:07.775Z,27
2023-03-02T17:15:07.874Z,20
2023-03-02T17:18:07.722Z,10
2023-03-02T17:21:07.801Z,7
2023-03-02T17:24:07.857Z,3
2023-03-02T17:27:24.805Z,3
2023-03-02T17:30:07.821Z,0
2023-03-02T17:33:07.762Z,0
2023-03-02T17:36:07.741Z,0
2023-03-02T17:39:07.720Z,0
2023-03-02T17:42:07.718Z,0
2023-03-02T17:45:07.840Z,0
2023-03-02T17:48:07.809Z,0
2023-03-02T17:51:07.810Z,0
2023-03-02T17:54:07.723Z,0
2023-03-02T17:57:07.751Z,0
2023-03-02T18:00:07.853Z,0
2023-03-02T18:03:07.982Z,0
2023-03-02T18:06:07.759Z,0
2023-03-02T18:09:07.738Z,0
2023-03-02T18:12:07.766Z,0
2023-03-02T18:15:07.879Z,0
2023-03-02T18:18:07.777Z,0
2023-03-02T18:21:07.714Z,0
2023-03-02T18:24:07.770Z,0
2023-03-02T18:27:07.771Z,0
2023-03-02T18:30:07.955Z,0
2023-03-02T18:33:07.799Z,0
2023-03-02T18:36:07.803Z,0
2023-03-02T18:39:07.770Z,0
2023-03-02T18:42:07.784Z,0
2023-03-02T18:45:07.783Z,0
2023-03-02T18:48:07.758Z,0
2023-03-02T18:51:07.772Z,0
2023-03-02T18:54:07.783Z,0
2023-03-02T18:57:07.800Z,0
2023-03-02T19:00:07.822Z,0
2023-03-02T19:03:07.725Z,0
2023-03-02T19:06:07.783Z,0
2023-03-02T19:09:07.711Z,0
2023-03-02T19:12:07.752Z,0
2023-03-02T19:15:07.788Z,0
2023-03-02T19:18:07.710Z,0
2023-03-02T19:21:07.765Z,0
2023-03-02T19:24:07.725Z,0
2023-03-02T19:27:08.880Z,0
2023-03-02T19:30:07.761Z,0
2023-03-02T19:33:07.788Z,0
2023-03-02T19:36:07.842Z,0
2023-03-02T19:39:07.764Z,0
2023-03-02T19:42:07.763Z,0
2023-03-02T19:45:07.785Z,0
2023-03-02T19:48:07.762Z,0
2023-03-02T19:51:07.752Z,0
2023-03-02T19:54:10.817Z,0
2023-03-02T19:57:07.769Z,0
2023-03-02T20:00:07.782Z,0
2023-03-02T20:03:07.753Z,0
2023-03-02T20:06:07.794Z,0
2023-03-02T20:09:07.985Z,0
2023-03-02T20:12:07.696Z,0
2023-03-02T20:15:07.763Z,0
2023-03-02T20:18:07.725Z,0
2023-03-02T20:21:07.729Z,0
2023-03-02T20:24:07.723Z,0
2023-03-02T20:27:07.728Z,0
2023-03-02T20:30:07.716Z,0
2023-03-02T20:33:07.724Z,0
2023-03-02T20:36:07.779Z,0
2023-03-02T20:39:07.804Z,0
2023-03-02T20:42:07.704Z,0
2023-03-02T20:45:08.036Z,0
2023-03-02T20:48:07.686Z,0
2023-03-02T20:51:07.761Z,0
2023-03-02T20:54:07.744Z,0
2023-03-02T20:57:07.848Z,0
2023-03-02T21:00:08.003Z,0
2023-03-02T21:03:07.730Z,0
2023-03-02T21:06:07.700Z,0
2023-03-02T21:09:07.751Z,0
2023-03-02T21:12:08.165Z,0
2023-03-02T21:15:07.794Z,0
2023-03-02T21:18:07.741Z,0
2023-03-02T21:21:07.736Z,0
2023-03-02T21:24:07.756Z,0
2023-03-02T21:27:07.724Z,0
2023-03-02T21:30:07.725Z,0
2023-03-02T21:33:07.827Z,0
2023-03-02T21:36:07.771Z,0
2023-03-02T21:39:07.728Z,0
2023-03-02T21:42:07.857Z,0
2023-03-02T21:45:08.083Z,0
2023-03-02T21:48:07.661Z,0
2023-03-02T21:51:07.711Z,0
2023-03-02T21:54:07.822Z,0
2023-03-02T21:57:07.833Z,0
2023-03-02T22:00:07.882Z,0
2023-03-02T22:03:07.711Z,0
2023-03-02T22:06:07.818Z,0
2023-03-02T22:09:07.718Z,0
2023-03-02T22:12:07.711Z,0
2023-03-02T22:15:07.802Z,0
2023-03-02T22:18:07.845Z,0
2023-03-02T22:21:07.712Z,0
2023-03-02T22:24:07.755Z,0
2023-03-02T22:27:07.807Z,0
2023-03-02T22:30:07.815Z,0
2023-03-02T22:33:07.726Z,0
2023-03-02T22:36:07.917Z,0
2023-03-02T22:39:07.744Z,0
2023-03-02T22:42:07.952Z,0
2023-03-02T22:45:07.768Z,0
2023-03-02T22:48:07.767Z,0
2023-03-02T22:51:07.740Z,0
2023-03-02T22:54:07.763Z,0
2023-03-02T22:57:07.647Z,0
2023-03-02T23:00:08.197Z,0
2023-03-02T23:03:07.731Z,0
2023-03-02T23:06:07.716Z,0
2023-03-02T23:09:07.783Z,0
2023-03-02T23:12:07.797Z,0
2023-03-02T23:15:07.758Z,0
2023-03-02T23:18:07.810Z,0
2023-03-02T23:21:07.705Z,0
2023-03-02T23:24:07.855Z,0
2023-03-02T23:27:07.721Z,0
2023-03-02T23:30:07.776Z,0
2023-03-02T23:33:07.797Z,0
2023-03-02T23:36:07.791Z,0
2023-03-02T23:39:07.748Z,0
2023-03-02T23:42:07.932Z,0
2023-03-02T23:45:07.758Z,0
2023-03-02T23:48:07.978Z,0
2023-03-02T23:51:07.778Z,0
2023-03-02T23:54:11.465Z,0
2023-03-02T23:57:07.867Z,0
